createdAt,value
2022-09-18T00:00:08.376Z,7.725525
2022-09-18T00:01:17.223Z,7.725525
2022-09-18T00:02:26.891Z,7.715454
2022-09-18T00:03:34.636Z,7.745667
2022-09-18T00:04:43.399Z,7.745667
2022-09-18T00:05:52.999Z,7.755737
2022-09-18T00:07:01.707Z,7.755737
2022-09-18T00:08:10.652Z,7.765808
2022-09-18T00:09:20.340Z,7.765808
2022-09-18T00:10:30.077Z,7.765808
2022-09-18T00:11:39.756Z,7.78595
2022-09-18T00:12:49.534Z,7.78595
2022-09-18T00:13:58.183Z,7.796021
2022-09-18T00:15:06.859Z,7.796021
2022-09-18T00:16:15.588Z,7.816162
2022-09-18T00:17:26.167Z,7.846375
2022-09-18T00:18:35.805Z,7.826233
2022-09-18T00:19:45.455Z,7.826233
2022-09-18T00:20:55.283Z,7.846375
2022-09-18T00:22:03.778Z,7.866516
2022-09-18T00:23:12.454Z,7.896729
2022-09-18T00:24:21.127Z,7.906799
2022-09-18T00:25:29.785Z,7.896729
2022-09-18T00:26:39.468Z,7.866516
2022-09-18T00:27:49.147Z,7.876587
2022-09-18T00:28:57.781Z,7.826233
2022-09-18T00:30:07.423Z,7.846375
2022-09-18T00:31:16.217Z,7.866516
2022-09-18T00:32:25.822Z,7.846375
2022-09-18T00:33:34.525Z,7.846375
2022-09-18T00:34:44.163Z,7.846375
2022-09-18T00:35:53.823Z,7.826233
2022-09-18T00:37:03.599Z,7.846375
2022-09-18T00:38:12.169Z,7.826233
2022-09-18T00:39:20.838Z,7.816162
2022-09-18T00:40:30.574Z,7.796021
2022-09-18T00:41:40.172Z,7.796021
2022-09-18T00:42:48.851Z,7.78595
2022-09-18T00:43:57.523Z,7.765808
2022-09-18T00:45:05.243Z,7.78595
2022-09-18T00:46:14.953Z,7.765808
2022-09-18T00:47:23.584Z,7.78595
2022-09-18T00:48:32.243Z,7.755737
2022-09-18T00:49:39.930Z,7.78595
2022-09-18T00:50:49.570Z,7.796021
2022-09-18T00:51:59.244Z,7.796021
2022-09-18T00:53:09.062Z,7.78595
2022-09-18T00:54:18.591Z,7.796021
2022-09-18T00:55:27.412Z,7.765808
2022-09-18T00:56:35.063Z,7.796021
2022-09-18T00:57:42.762Z,7.796021
2022-09-18T00:58:52.425Z,7.796021
2022-09-18T01:00:02.110Z,7.765808
2022-09-18T01:01:11.797Z,7.755737
2022-09-18T01:02:21.545Z,7.765808
2022-09-18T01:03:31.119Z,7.78595
2022-09-18T01:04:40.808Z,7.765808
2022-09-18T01:05:50.534Z,7.796021
2022-09-18T01:07:00.230Z,7.78595
2022-09-18T01:08:10.003Z,7.765808
2022-09-18T01:09:28.180Z,7.765808
2022-09-18T01:10:29.401Z,7.78595
2022-09-18T01:11:39.775Z,7.765808
2022-09-18T01:12:48.566Z,7.78595
2022-09-18T01:13:57.255Z,7.78595
2022-09-18T01:15:06.733Z,7.796021
2022-09-18T01:16:14.461Z,7.796021
2022-09-18T01:17:23.067Z,7.826233
2022-09-18T01:18:31.763Z,7.816162
2022-09-18T01:19:41.433Z,7.796021
2022-09-18T01:20:51.150Z,7.816162
2022-09-18T01:21:59.999Z,7.846375
2022-09-18T01:23:08.697Z,7.816162
2022-09-18T01:24:18.373Z,7.816162
2022-09-18T01:25:27.209Z,7.846375
2022-09-18T01:26:36.799Z,7.866516
2022-09-18T01:27:44.466Z,7.866516
2022-09-18T01:28:54.112Z,7.896729
2022-09-18T01:30:02.815Z,7.876587
2022-09-18T01:31:10.518Z,7.896729
2022-09-18T01:32:19.281Z,7.876587
2022-09-18T01:33:27.948Z,7.906799
2022-09-18T01:34:37.624Z,7.896729
2022-09-18T01:35:45.364Z,7.896729
2022-09-18T01:36:55.017Z,7.896729
2022-09-18T01:38:04.701Z,7.876587
2022-09-18T01:39:13.338Z,7.866516
2022-09-18T01:40:20.094Z,7.876587
2022-09-18T01:41:30.494Z,7.876587
2022-09-18T01:42:40.051Z,7.896729
2022-09-18T01:43:48.682Z,7.906799
2022-09-18T01:44:57.317Z,7.906799
2022-09-18T01:46:06.001Z,7.926941
2022-09-18T01:47:15.644Z,7.906799
2022-09-18T01:48:24.337Z,7.906799
2022-09-18T01:49:32.990Z,7.937012
2022-09-18T01:50:41.654Z,7.937012
2022-09-18T01:51:50.291Z,7.947083
2022-09-18T01:52:59.997Z,7.967224
2022-09-18T01:54:08.660Z,7.977295
2022-09-18T01:55:18.321Z,7.977295
2022-09-18T01:56:26.984Z,7.997437
2022-09-18T01:57:36.778Z,8.007507
2022-09-18T01:58:45.362Z,8.047791
2022-09-18T01:59:53.049Z,8.047791
2022-09-18T02:01:00.704Z,8.078003
2022-09-18T02:02:10.577Z,8.078003
2022-09-18T02:03:20.077Z,8.088074
2022-09-18T02:04:28.836Z,8.098145
2022-09-18T02:05:38.506Z,8.128357
2022-09-18T02:06:47.167Z,8.128357
2022-09-18T02:07:55.825Z,8.158569
2022-09-18T02:09:05.531Z,8.178711
2022-09-18T02:10:13.162Z,8.178711
2022-09-18T02:11:22.818Z,8.188782
2022-09-18T02:12:31.482Z,8.229065
2022-09-18T02:13:40.501Z,8.229065
2022-09-18T02:14:49.021Z,8.229065
2022-09-18T02:15:57.742Z,8.239136
2022-09-18T02:17:07.339Z,8.239136
2022-09-18T02:18:16.984Z,8.239136
2022-09-18T02:19:25.650Z,8.259277
2022-09-18T02:20:34.310Z,8.259277
2022-09-18T02:21:43.044Z,8.279419
2022-09-18T02:22:52.951Z,8.269348
2022-09-18T02:24:02.635Z,8.279419
2022-09-18T02:25:12.241Z,8.299561
2022-09-18T02:26:21.753Z,8.309631
2022-09-18T02:27:30.412Z,8.309631
2022-09-18T02:28:40.077Z,8.309631
2022-09-18T02:29:47.887Z,8.329773
2022-09-18T02:30:57.539Z,8.329773
2022-09-18T02:32:06.200Z,8.309631
2022-09-18T02:33:14.898Z,8.309631
2022-09-18T02:34:24.577Z,8.309631
2022-09-18T02:35:34.200Z,8.309631
2022-09-18T02:36:42.868Z,8.329773
2022-09-18T02:37:51.513Z,8.339844
2022-09-18T02:39:00.232Z,8.339844
2022-09-18T02:40:07.970Z,8.370056
2022-09-18T02:41:16.592Z,8.359985
2022-09-18T02:42:26.254Z,8.380127
2022-09-18T02:43:35.904Z,8.370056
2022-09-18T02:44:44.584Z,8.370056
2022-09-18T02:45:53.354Z,8.359985
2022-09-18T02:47:01.895Z,8.370056
2022-09-18T02:48:11.575Z,8.359985
2022-09-18T02:49:19.268Z,8.380127
2022-09-18T02:50:29.079Z,8.380127
2022-09-18T02:51:38.713Z,8.42041
2022-09-18T02:52:47.355Z,8.450623
2022-09-18T02:53:57.029Z,8.460693
2022-09-18T02:55:06.719Z,8.480835
2022-09-18T02:56:16.436Z,8.490906
2022-09-18T02:57:25.098Z,8.490906
2022-09-18T02:58:34.762Z,8.490906
2022-09-18T02:59:45.362Z,8.490906
2022-09-18T03:00:55.075Z,8.531189
2022-09-18T03:02:05.173Z,8.531189
2022-09-18T03:03:14.557Z,8.551331
2022-09-18T03:04:24.264Z,8.581543
2022-09-18T03:05:33.918Z,8.601685
2022-09-18T03:06:42.597Z,8.601685
2022-09-18T03:07:53.028Z,8.581543
2022-09-18T03:09:01.745Z,8.581543
2022-09-18T03:10:10.401Z,8.611755
2022-09-18T03:11:20.058Z,8.611755
2022-09-18T03:12:30.279Z,8.601685
2022-09-18T03:13:39.972Z,8.611755
2022-09-18T03:14:49.654Z,8.641968
2022-09-18T03:15:56.335Z,8.631897
2022-09-18T03:17:05.958Z,8.662109
2022-09-18T03:18:14.785Z,8.662109
2022-09-18T03:19:24.383Z,8.662109
2022-09-18T03:20:34.059Z,8.67218
2022-09-18T03:21:42.745Z,8.67218
2022-09-18T03:22:51.427Z,8.702393
2022-09-18T03:23:59.538Z,8.712463
2022-09-18T03:25:09.194Z,8.732605
2022-09-18T03:26:18.864Z,8.742676
2022-09-18T03:27:28.518Z,8.742676
2022-09-18T03:28:39.032Z,8.762817
2022-09-18T03:29:47.683Z,8.762817
2022-09-18T03:30:55.472Z,8.782959
2022-09-18T03:32:04.066Z,8.762817
2022-09-18T03:33:12.712Z,8.79303
2022-09-18T03:34:21.531Z,8.813171
2022-09-18T03:35:29.335Z,8.853455
2022-09-18T03:36:37.017Z,8.853455
2022-09-18T03:37:45.703Z,8.873596
2022-09-18T03:38:54.416Z,8.843384
2022-09-18T03:40:04.058Z,8.853455
2022-09-18T03:41:12.644Z,8.853455
2022-09-18T03:42:22.514Z,8.853455
2022-09-18T03:43:31.214Z,8.853455
2022-09-18T03:44:40.945Z,8.873596
2022-09-18T03:45:49.673Z,8.853455
2022-09-18T03:46:59.447Z,8.873596
2022-09-18T03:48:08.005Z,8.883667
2022-09-18T03:49:14.720Z,8.883667
2022-09-18T03:50:23.494Z,8.893738
2022-09-18T03:51:33.208Z,8.883667
2022-09-18T03:52:41.934Z,8.883667
2022-09-18T03:53:52.625Z,8.873596
2022-09-18T03:55:02.432Z,8.873596
2022-09-18T03:56:11.133Z,8.853455
2022-09-18T03:57:19.773Z,8.873596
2022-09-18T03:58:29.428Z,8.873596
2022-09-18T03:59:38.186Z,8.823242
2022-09-18T04:00:46.870Z,8.79303
2022-09-18T04:01:56.547Z,8.79303
2022-09-18T04:03:05.232Z,8.813171
2022-09-18T04:04:12.815Z,8.79303
2022-09-18T04:05:21.518Z,8.79303
2022-09-18T04:06:31.381Z,8.813171
2022-09-18T04:07:39.886Z,8.823242
2022-09-18T04:08:48.611Z,8.79303
2022-09-18T04:09:58.271Z,8.813171
2022-09-18T04:11:07.040Z,8.79303
2022-09-18T04:12:16.681Z,8.813171
2022-09-18T04:13:25.330Z,8.79303
2022-09-18T04:14:33.989Z,8.79303
2022-09-18T04:15:43.685Z,8.782959
2022-09-18T04:16:53.356Z,8.79303
2022-09-18T04:18:03.112Z,8.813171
2022-09-18T04:19:10.770Z,8.813171
2022-09-18T04:20:20.450Z,8.813171
2022-09-18T04:21:29.182Z,8.823242
2022-09-18T04:22:38.023Z,8.813171
2022-09-18T04:23:46.553Z,8.823242
2022-09-18T04:24:56.274Z,8.813171
2022-09-18T04:26:04.967Z,8.823242
2022-09-18T04:27:14.637Z,8.823242
2022-09-18T04:28:24.325Z,8.853455
2022-09-18T04:29:32.977Z,8.883667
2022-09-18T04:30:41.644Z,8.883667
2022-09-18T04:31:50.330Z,8.893738
2022-09-18T04:32:59.963Z,8.893738
2022-09-18T04:34:08.694Z,8.893738
2022-09-18T04:35:18.365Z,8.893738
2022-09-18T04:36:28.022Z,8.913879
2022-09-18T04:37:35.686Z,8.954163
2022-09-18T04:38:43.471Z,8.954163
2022-09-18T04:39:52.088Z,8.974304
2022-09-18T04:41:01.772Z,8.994446
2022-09-18T04:42:11.435Z,9.024658
2022-09-18T04:43:20.093Z,9.004517
2022-09-18T04:44:29.725Z,9.004517
2022-09-18T04:45:39.395Z,8.994446
2022-09-18T04:46:48.083Z,8.974304
2022-09-18T04:47:56.674Z,8.974304
2022-09-18T04:49:05.334Z,8.974304
2022-09-18T04:50:13.023Z,8.974304
2022-09-18T04:51:21.799Z,8.994446
2022-09-18T04:52:30.409Z,8.994446
2022-09-18T04:53:40.053Z,8.994446
2022-09-18T04:54:49.795Z,8.994446
2022-09-18T04:55:59.368Z,8.994446
2022-09-18T04:57:09.074Z,8.994446
2022-09-18T04:58:16.768Z,9.024658
2022-09-18T04:59:25.506Z,8.994446
2022-09-18T05:00:34.289Z,9.004517
2022-09-18T05:01:44.866Z,8.974304
2022-09-18T05:02:54.497Z,8.974304
2022-09-18T05:04:03.159Z,8.974304
2022-09-18T05:05:12.834Z,9.004517
2022-09-18T05:06:22.559Z,9.024658
2022-09-18T05:07:32.238Z,9.004517
2022-09-18T05:08:42.032Z,9.024658
2022-09-18T05:09:51.710Z,9.004517
2022-09-18T05:11:01.495Z,8.994446
2022-09-18T05:12:10.048Z,9.004517
2022-09-18T05:13:18.742Z,8.994446
2022-09-18T05:14:27.455Z,9.024658
2022-09-18T05:15:37.152Z,9.024658
2022-09-18T05:16:45.775Z,9.0448
2022-09-18T05:17:55.637Z,9.034729
2022-09-18T05:19:03.474Z,9.034729
2022-09-18T05:20:12.151Z,9.034729
2022-09-18T05:21:22.008Z,9.034729
2022-09-18T05:22:29.649Z,9.0448
2022-09-18T05:23:39.345Z,9.024658
2022-09-18T05:24:49.009Z,9.024658
2022-09-18T05:26:00.035Z,9.034729
2022-09-18T05:27:09.827Z,9.024658
2022-09-18T05:28:18.353Z,9.024658
2022-09-18T05:29:27.050Z,9.004517
2022-09-18T05:30:33.710Z,8.994446
2022-09-18T05:31:41.500Z,8.994446
2022-09-18T05:32:50.104Z,9.004517
2022-09-18T05:33:58.799Z,9.024658
2022-09-18T05:35:07.477Z,9.024658
2022-09-18T05:36:15.213Z,8.974304
2022-09-18T05:37:24.883Z,9.004517
2022-09-18T05:38:32.541Z,9.004517
2022-09-18T05:39:40.209Z,9.024658
2022-09-18T05:40:49.925Z,9.024658
2022-09-18T05:41:59.610Z,8.994446
2022-09-18T05:43:08.456Z,8.994446
2022-09-18T05:44:18.109Z,8.994446
2022-09-18T05:45:26.772Z,8.994446
2022-09-18T05:46:35.576Z,8.994446
2022-09-18T05:47:45.217Z,8.954163
2022-09-18T05:48:54.975Z,8.994446
2022-09-18T05:50:04.641Z,8.994446
2022-09-18T05:51:13.382Z,9.004517
2022-09-18T05:52:21.150Z,9.004517
2022-09-18T05:53:30.835Z,9.024658
2022-09-18T05:54:39.593Z,9.004517
2022-09-18T05:55:49.314Z,9.034729
2022-09-18T05:56:58.105Z,9.024658
2022-09-18T05:58:05.755Z,9.034729
2022-09-18T05:59:14.603Z,9.024658
2022-09-18T06:00:24.206Z,9.034729
2022-09-18T06:01:33.062Z,9.0448
2022-09-18T06:02:43.702Z,9.064941
2022-09-18T06:03:53.364Z,9.064941
2022-09-18T06:05:00.324Z,9.105225
2022-09-18T06:06:08.990Z,9.155579
2022-09-18T06:07:17.684Z,9.17572
2022-09-18T06:08:26.402Z,9.17572
2022-09-18T06:09:35.087Z,9.216003
2022-09-18T06:10:44.837Z,9.226074
2022-09-18T06:11:53.646Z,9.246216
2022-09-18T06:13:03.333Z,9.246216
2022-09-18T06:14:11.985Z,9.226074
2022-09-18T06:15:20.788Z,9.226074
2022-09-18T06:16:30.404Z,9.276428
2022-09-18T06:17:40.064Z,9.306641
2022-09-18T06:18:48.820Z,9.306641
2022-09-18T06:19:56.454Z,9.316711
2022-09-18T06:21:06.107Z,9.316711
2022-09-18T06:22:12.765Z,9.356995
2022-09-18T06:23:21.578Z,9.367065
2022-09-18T06:24:31.234Z,9.367065
2022-09-18T06:25:40.961Z,9.397278
2022-09-18T06:26:47.623Z,9.387207
2022-09-18T06:27:56.329Z,9.387207
2022-09-18T06:29:05.035Z,9.397278
2022-09-18T06:30:12.726Z,9.397278
2022-09-18T06:31:20.576Z,9.42749
2022-09-18T06:32:28.098Z,9.467773
2022-09-18T06:33:35.787Z,9.467773
2022-09-18T06:34:44.521Z,9.497986
2022-09-18T06:35:53.194Z,9.508057
2022-09-18T06:37:02.894Z,9.508057
2022-09-18T06:38:11.539Z,9.508057
2022-09-18T06:39:21.265Z,9.538269
2022-09-18T06:40:31.200Z,9.538269
2022-09-18T06:41:39.821Z,9.538269
2022-09-18T06:42:49.598Z,9.538269
2022-09-18T06:43:58.323Z,9.538269
2022-09-18T06:45:05.974Z,9.558411
2022-09-18T06:46:13.736Z,9.558411
2022-09-18T06:47:22.496Z,9.558411
2022-09-18T06:48:30.150Z,9.558411
2022-09-18T06:49:39.900Z,9.558411
2022-09-18T06:50:49.567Z,9.54834
2022-09-18T06:51:58.239Z,9.54834
2022-09-18T06:53:11.688Z,9.54834
2022-09-18T06:54:15.579Z,9.538269
2022-09-18T06:55:24.321Z,9.54834
2022-09-18T06:56:34.063Z,9.538269
2022-09-18T06:57:43.790Z,9.54834
2022-09-18T06:58:52.520Z,9.538269
2022-09-18T07:00:02.282Z,9.538269
2022-09-18T07:01:09.148Z,9.538269
2022-09-18T07:02:19.685Z,9.497986
2022-09-18T07:03:26.491Z,9.497986
2022-09-18T07:04:35.060Z,9.497986
2022-09-18T07:05:43.849Z,9.477844
2022-09-18T07:06:51.547Z,9.477844
2022-09-18T07:08:01.184Z,9.497986
2022-09-18T07:09:10.852Z,9.477844
2022-09-18T07:10:19.538Z,9.457703
2022-09-18T07:11:29.202Z,9.477844
2022-09-18T07:12:36.880Z,9.467773
2022-09-18T07:13:45.549Z,9.457703
2022-09-18T07:14:54.389Z,9.457703
2022-09-18T07:16:02.223Z,9.467773
2022-09-18T07:17:15.444Z,9.467773
2022-09-18T07:18:22.540Z,9.457703
2022-09-18T07:19:31.401Z,9.457703
2022-09-18T07:20:37.966Z,9.457703
2022-09-18T07:21:45.665Z,9.437561
2022-09-18T07:22:54.358Z,9.437561
2022-09-18T07:24:01.168Z,9.437561
2022-09-18T07:25:09.820Z,9.437561
2022-09-18T07:26:18.542Z,9.407349
2022-09-18T07:27:25.254Z,9.387207
2022-09-18T07:28:33.971Z,9.387207
2022-09-18T07:29:42.684Z,9.407349
2022-09-18T07:30:50.385Z,9.397278
2022-09-18T07:31:59.045Z,9.407349
2022-09-18T07:33:06.744Z,9.387207
2022-09-18T07:34:16.481Z,9.397278
2022-09-18T07:35:25.355Z,9.387207
2022-09-18T07:36:33.882Z,9.387207
2022-09-18T07:37:40.668Z,9.367065
2022-09-18T07:38:49.343Z,9.397278
2022-09-18T07:39:57.078Z,9.387207
2022-09-18T07:41:05.728Z,9.387207
2022-09-18T07:42:15.385Z,9.367065
2022-09-18T07:43:24.148Z,9.367065
2022-09-18T07:44:31.787Z,9.356995
2022-09-18T07:45:40.455Z,9.397278
2022-09-18T07:46:50.267Z,9.407349
2022-09-18T07:48:00.008Z,9.42749
2022-09-18T07:49:07.695Z,9.42749
2022-09-18T07:50:17.376Z,9.42749
2022-09-18T07:51:26.580Z,9.407349
2022-09-18T07:52:34.862Z,9.437561
2022-09-18T07:53:42.549Z,9.42749
2022-09-18T07:54:51.234Z,9.457703
2022-09-18T07:55:58.887Z,9.437561
2022-09-18T07:57:08.584Z,9.457703
2022-09-18T07:58:18.267Z,9.437561
2022-09-18T07:59:27.973Z,9.457703
2022-09-18T08:00:36.634Z,9.477844
2022-09-18T08:01:46.391Z,9.477844
2022-09-18T08:02:53.088Z,9.497986
2022-09-18T08:04:01.764Z,9.497986
2022-09-18T08:05:11.459Z,9.538269
2022-09-18T08:06:21.400Z,9.508057
2022-09-18T08:07:31.202Z,9.508057
2022-09-18T08:08:39.802Z,9.508057
2022-09-18T08:09:49.454Z,9.508057
2022-09-18T08:10:58.104Z,9.558411
2022-09-18T08:12:06.835Z,9.618835
2022-09-18T08:13:15.499Z,9.608765
2022-09-18T08:14:26.727Z,9.608765
2022-09-18T08:15:32.795Z,9.588623
2022-09-18T08:16:42.463Z,9.608765
2022-09-18T08:17:51.222Z,9.608765
2022-09-18T08:18:59.843Z,9.578552
2022-09-18T08:20:08.542Z,9.588623
2022-09-18T08:21:17.191Z,9.618835
2022-09-18T08:22:25.874Z,9.618835
2022-09-18T08:23:32.683Z,9.638977
2022-09-18T08:24:41.263Z,9.618835
2022-09-18T08:25:51.011Z,9.588623
2022-09-18T08:26:57.671Z,9.608765
2022-09-18T08:28:06.320Z,9.588623
2022-09-18T08:29:15.020Z,9.578552
2022-09-18T08:30:23.703Z,9.588623
2022-09-18T08:31:32.424Z,9.618835
2022-09-18T08:32:41.100Z,9.608765
2022-09-18T08:33:49.921Z,9.588623
2022-09-18T08:34:58.639Z,9.578552
2022-09-18T08:36:08.306Z,9.618835
2022-09-18T08:37:16.957Z,9.618835
2022-09-18T08:38:26.673Z,9.638977
2022-09-18T08:39:36.453Z,9.659119
2022-09-18T08:40:43.984Z,9.689331
2022-09-18T08:41:53.629Z,9.689331
2022-09-18T08:43:03.342Z,9.719543
2022-09-18T08:44:12.012Z,9.739685
2022-09-18T08:45:21.690Z,9.769897
2022-09-18T08:46:31.461Z,9.820251
2022-09-18T08:47:38.087Z,9.820251
2022-09-18T08:48:47.809Z,9.830322
2022-09-18T08:49:56.427Z,9.820251
2022-09-18T08:51:05.126Z,9.820251
2022-09-18T08:52:14.928Z,9.870605
2022-09-18T08:53:23.615Z,9.860535
2022-09-18T08:54:32.285Z,9.860535
2022-09-18T08:55:40.186Z,9.860535
2022-09-18T08:56:48.717Z,9.890747
2022-09-18T08:57:57.427Z,9.870605
2022-09-18T08:59:06.098Z,9.910889
2022-09-18T09:00:12.814Z,9.860535
2022-09-18T09:01:20.636Z,9.890747
2022-09-18T09:02:29.304Z,9.910889
2022-09-18T09:03:36.944Z,9.920959
2022-09-18T09:04:46.752Z,9.890747
2022-09-18T09:05:56.537Z,9.951172
2022-09-18T09:07:04.232Z,9.951172
2022-09-18T09:08:13.924Z,9.971313
2022-09-18T09:09:23.631Z,10.021667
2022-09-18T09:10:32.297Z,10.092163
2022-09-18T09:11:41.087Z,10.122375
2022-09-18T09:12:50.643Z,10.152588
2022-09-18T09:13:59.403Z,10.172729
2022-09-18T09:15:08.145Z,10.202942
2022-09-18T09:16:18.871Z,10.233154
2022-09-18T09:17:27.552Z,10.263367
2022-09-18T09:18:36.548Z,10.30365
2022-09-18T09:19:45.204Z,10.354004
2022-09-18T09:20:53.059Z,10.384216
2022-09-18T09:22:02.801Z,10.404358
2022-09-18T09:23:11.485Z,10.414429
2022-09-18T09:24:21.237Z,10.464783
2022-09-18T09:25:29.907Z,10.464783
2022-09-18T09:26:39.647Z,10.525208
2022-09-18T09:27:49.424Z,10.505066
2022-09-18T09:28:57.977Z,10.535278
2022-09-18T09:30:06.733Z,10.505066
2022-09-18T09:31:13.477Z,10.55542
2022-09-18T09:32:23.115Z,10.585632
2022-09-18T09:33:31.846Z,10.585632
2022-09-18T09:34:40.540Z,10.565491
2022-09-18T09:35:50.250Z,10.565491
2022-09-18T09:36:57.940Z,10.585632
2022-09-18T09:38:06.731Z,10.585632
2022-09-18T09:39:15.470Z,10.605774
2022-09-18T09:40:23.284Z,10.585632
2022-09-18T09:41:32.913Z,10.585632
2022-09-18T09:42:42.706Z,10.595703
2022-09-18T09:43:52.685Z,10.585632
2022-09-18T09:45:00.238Z,10.595703
2022-09-18T09:46:07.953Z,10.605774
2022-09-18T09:47:17.695Z,10.605774
2022-09-18T09:48:27.326Z,10.625916
2022-09-18T09:49:36.027Z,10.67627
2022-09-18T09:50:44.735Z,10.67627
2022-09-18T09:51:53.539Z,10.706482
2022-09-18T09:53:01.229Z,10.716553
2022-09-18T09:54:11.916Z,10.776978
2022-09-18T09:55:19.598Z,10.817261
2022-09-18T09:56:26.267Z,10.857544
2022-09-18T09:57:33.968Z,10.837402
2022-09-18T09:58:43.753Z,10.857544
2022-09-18T09:59:51.545Z,10.867615
2022-09-18T10:01:00.184Z,10.867615
2022-09-18T10:02:08.884Z,10.887756
2022-09-18T10:03:16.490Z,10.897827
2022-09-18T10:04:24.173Z,10.93811
2022-09-18T10:05:32.853Z,10.93811
2022-09-18T10:06:40.554Z,10.958252
2022-09-18T10:07:49.278Z,10.988464
2022-09-18T10:08:58.951Z,10.988464
2022-09-18T10:10:08.623Z,10.988464
2022-09-18T10:11:18.276Z,10.988464
2022-09-18T10:12:28.178Z,11.018677
2022-09-18T10:13:37.841Z,11.018677
2022-09-18T10:14:46.558Z,10.988464
2022-09-18T10:15:55.364Z,11.038818
2022-09-18T10:17:03.862Z,10.998535
2022-09-18T10:18:15.711Z,10.998535
2022-09-18T10:19:20.193Z,10.988464
2022-09-18T10:20:27.928Z,10.93811
2022-09-18T10:21:36.527Z,10.93811
2022-09-18T10:22:45.195Z,10.92804
2022-09-18T10:23:51.971Z,10.917969
2022-09-18T10:24:59.703Z,10.897827
2022-09-18T10:26:09.387Z,10.887756
2022-09-18T10:27:19.128Z,10.867615
2022-09-18T10:28:28.904Z,10.867615
2022-09-18T10:29:37.726Z,10.887756
2022-09-18T10:30:47.415Z,10.887756
2022-09-18T10:31:56.284Z,10.867615
2022-09-18T10:33:05.825Z,10.887756
2022-09-18T10:34:14.505Z,10.917969
2022-09-18T10:35:24.182Z,10.897827
2022-09-18T10:36:32.898Z,10.897827
2022-09-18T10:37:41.562Z,10.917969
2022-09-18T10:38:50.211Z,10.92804
2022-09-18T10:39:58.963Z,10.958252
2022-09-18T10:41:07.674Z,10.93811
2022-09-18T10:42:16.330Z,10.968323
2022-09-18T10:43:26.067Z,11.038818
2022-09-18T10:44:35.798Z,11.099243
2022-09-18T10:45:45.521Z,11.109314
2022-09-18T10:46:55.315Z,11.149597
2022-09-18T10:48:05.036Z,11.17981
2022-09-18T10:49:12.592Z,11.250305
2022-09-18T10:50:22.250Z,11.250305
2022-09-18T10:51:31.916Z,11.250305
2022-09-18T10:52:40.592Z,11.270447
2022-09-18T10:53:48.276Z,11.270447
2022-09-18T10:54:57.105Z,11.300659
2022-09-18T10:56:05.747Z,11.290588
2022-09-18T10:57:14.436Z,11.320801
2022-09-18T10:58:24.274Z,11.330872
2022-09-18T10:59:31.952Z,11.320801
2022-09-18T11:00:41.712Z,11.330872
2022-09-18T11:01:50.404Z,11.361084
2022-09-18T11:02:58.058Z,11.401367
2022-09-18T11:04:05.926Z,11.43158
2022-09-18T11:05:14.481Z,11.43158
2022-09-18T11:06:23.178Z,11.411438
2022-09-18T11:07:30.854Z,11.43158
2022-09-18T11:08:39.547Z,11.44165
2022-09-18T11:09:48.286Z,11.43158
2022-09-18T11:10:56.950Z,11.371155
2022-09-18T11:12:05.721Z,11.361084
2022-09-18T11:13:14.366Z,11.330872
2022-09-18T11:14:23.098Z,11.300659
2022-09-18T11:15:32.855Z,11.270447
2022-09-18T11:16:42.529Z,11.270447
2022-09-18T11:17:51.210Z,11.290588
2022-09-18T11:18:58.910Z,11.270447
2022-09-18T11:20:08.694Z,11.270447
2022-09-18T11:21:17.285Z,11.230164
2022-09-18T11:22:26.994Z,11.250305
2022-09-18T11:23:36.686Z,11.260376
2022-09-18T11:24:47.468Z,11.230164
2022-09-18T11:25:55.053Z,11.220093
2022-09-18T11:27:04.916Z,11.17981
2022-09-18T11:28:12.653Z,11.17981
2022-09-18T11:29:22.338Z,11.149597
2022-09-18T11:30:30.185Z,11.149597
2022-09-18T11:31:39.025Z,11.139526
2022-09-18T11:32:46.541Z,11.149597
2022-09-18T11:33:55.197Z,11.18988
2022-09-18T11:35:04.845Z,11.260376
2022-09-18T11:36:12.640Z,11.270447
2022-09-18T11:37:20.234Z,11.351013
2022-09-18T11:38:29.014Z,11.361084
2022-09-18T11:39:36.657Z,11.401367
2022-09-18T11:40:46.445Z,11.44165
2022-09-18T11:41:55.040Z,11.471863
2022-09-18T11:43:02.734Z,11.481934
2022-09-18T11:44:11.464Z,11.542358
2022-09-18T11:45:20.146Z,11.522217
2022-09-18T11:46:29.879Z,11.552429
2022-09-18T11:47:39.522Z,11.542358
2022-09-18T11:48:48.231Z,11.572571
2022-09-18T11:49:58.868Z,11.542358
2022-09-18T11:51:06.620Z,11.552429
2022-09-18T11:52:15.409Z,11.552429
2022-09-18T11:53:24.008Z,11.552429
2022-09-18T11:54:30.615Z,11.572571
2022-09-18T11:55:40.375Z,11.592712
2022-09-18T11:56:50.029Z,11.572571
2022-09-18T11:57:58.721Z,11.592712
2022-09-18T11:59:05.394Z,11.602783
2022-09-18T12:00:15.053Z,11.592712
2022-09-18T12:01:23.802Z,11.602783
2022-09-18T12:02:33.657Z,11.632996
2022-09-18T12:03:41.135Z,11.663208
2022-09-18T12:04:50.799Z,11.723633
2022-09-18T12:06:00.875Z,11.753845
2022-09-18T12:07:09.574Z,11.753845
2022-09-18T12:08:35.988Z,11.733704
2022-09-18T12:09:44.555Z,11.753845
2022-09-18T12:10:54.242Z,11.733704
2022-09-18T12:12:02.910Z,11.703491
2022-09-18T12:13:10.665Z,11.69342
2022-09-18T12:14:19.411Z,11.663208
2022-09-18T12:15:29.113Z,11.592712
2022-09-18T12:16:36.850Z,11.502075
2022-09-18T12:17:47.460Z,11.411438
2022-09-18T12:18:55.194Z,11.330872
2022-09-18T12:20:04.070Z,11.250305
2022-09-18T12:21:12.703Z,11.17981
2022-09-18T12:22:22.422Z,11.079102
2022-09-18T12:23:31.174Z,11.038818
2022-09-18T12:24:40.987Z,10.93811
2022-09-18T12:25:49.592Z,10.887756
2022-09-18T12:26:58.282Z,10.857544
2022-09-18T12:28:07.967Z,10.857544
2022-09-18T12:29:17.708Z,10.867615
2022-09-18T12:30:26.345Z,10.867615
2022-09-18T12:31:37.158Z,10.867615
2022-09-18T12:32:45.771Z,10.867615
2022-09-18T12:33:55.598Z,10.857544
2022-09-18T12:35:04.410Z,10.776978
2022-09-18T12:36:12.038Z,10.787048
2022-09-18T12:37:18.738Z,10.837402
2022-09-18T12:38:25.392Z,10.837402
2022-09-18T12:39:34.798Z,10.887756
2022-09-18T12:40:44.583Z,10.887756
2022-09-18T12:41:53.136Z,10.887756
2022-09-18T12:43:02.780Z,10.917969
2022-09-18T12:44:12.512Z,10.917969
2022-09-18T12:45:21.283Z,10.93811
2022-09-18T12:46:31.101Z,11.038818
2022-09-18T12:47:38.819Z,11.099243
2022-09-18T12:48:48.610Z,11.220093
2022-09-18T12:49:57.271Z,11.250305
2022-09-18T12:51:05.946Z,11.290588
2022-09-18T12:52:12.648Z,11.300659
2022-09-18T12:53:21.412Z,11.351013
2022-09-18T12:54:30.052Z,11.401367
2022-09-18T12:55:38.735Z,11.411438
2022-09-18T12:56:48.567Z,11.43158
2022-09-18T12:57:58.165Z,11.43158
2022-09-18T12:59:07.861Z,11.471863
2022-09-18T13:00:15.559Z,11.481934
2022-09-18T13:01:24.323Z,11.44165
2022-09-18T13:02:34.021Z,11.401367
2022-09-18T13:03:42.671Z,11.361084
2022-09-18T13:04:51.378Z,11.290588
2022-09-18T13:06:01.060Z,11.260376
2022-09-18T13:07:10.860Z,11.250305
2022-09-18T13:08:18.685Z,11.139526
2022-09-18T13:09:28.337Z,11.149597
2022-09-18T13:10:36.066Z,11.109314
2022-09-18T13:11:45.839Z,11.048889
2022-09-18T13:12:54.734Z,10.998535
2022-09-18T13:14:04.362Z,10.93811
2022-09-18T13:15:13.103Z,10.887756
2022-09-18T13:16:23.575Z,10.787048
2022-09-18T13:17:31.283Z,10.756836
2022-09-18T13:18:39.074Z,10.706482
2022-09-18T13:19:45.885Z,10.706482
2022-09-18T13:20:54.696Z,10.736694
2022-09-18T13:22:03.433Z,10.787048
2022-09-18T13:23:12.145Z,10.857544